Aérodrome :
LOGIN :

S'inscrire | Disclaimer

   EN    FR    IT 

 










Légende :    VFR   VFR Marginal   IFR   IFR Intensif   IFR Très Intensif
Visi : 
Plafond : 
>= 8 km
>= 3000ft
5 à 8 km
1000 à 3000 ft
1500m à 5 km
500 à 1000 ft
800 à 1500m
200 à 500 ft
< 800m
< 200 ft
Symboles :   Orages  Brouillard  Fortes neiges  Fortes précipitations  Vent > 20 kt
SIGMETs :   Divers  Orages  Givrage  Turbulence  Onde Orograph.  Cendres Volcan.






- Altitude de l'aérodrome : 163 ft
- Code IATA : IST


LTBA - Ataturk

DERNIER METAR :
  • 280750Z 10007KT 9999 BKN040 09/01 Q1015 NOSIG RMK RWY17L 11006KT 090V150 RWY05 11006KT RWY23 12006KT

METARs EXPIRÉS :
  • 280720Z 10007KT 9999 BKN040 09/02 Q1015 NOSIG RMK RWY17L 10005KT 070V130 RWY05 10006KT RWY23 11005KT 080V150
  • 280650Z 10005KT 9999 BKN040 09/02 Q1015 NOSIG RMK RWY17L 10005KT 050V130 RWY05 09005KT RWY23 09006KT 070V140
  • 280620Z 08004KT 050V110 9999 BKN040 09/02 Q1015 NOSIG RMK RWY17L 10004KT 070V130 RWY05 10004KT RWY23 09005KT 060V150
  • 280550Z 07003KT 020V110 9999 SCT025 BKN080 08/04 Q1014 NOSIG RMK RWY17L VRB01KT RWY05 09004KT RWY23 08005KT

TAF TAF LTBA
Valide du 28 à 06h jusqu'au 29 à 12h UTC


280440Z 2806/2912 VRB02KT 9999 SCT025 BKN070
BECMG 2807/2810 CAVOK
BECMG 2816/2819 19013KT SCT035 BKN100
BECMG 2820/2823 -SHRA BKN032 BKN090
TEMPO 2823/2903 33015G28KT -TSRA FEW017CB BKN025
BECMG 2903/2905 33015G25KT
BECMG 2908/2911 01013KT



MET'MAP, la Météo Aéronautique d'un coup d'oeil ! - Copyright ORBIFLY Décembre 2007 - Disclaimer

ORBIFLY MET'MAP TEAM :

Programmation & Développement : Alexandra Zaïnal
Sur une idée originale de : Baudouin d'Aumeries
Assistance à la programmation : Marc-Olivier Méhu
Soutien technique & logistique : Manuel Goepfert

Contact : metmap@orbifly.com




SOURCES & CREDITS :

   NOAA